sensor_id;sensor_type;location;lat;lon;timestamp;temperature;humidity
38221;DHT22;24023;51.280;7.148;2022-08-21T00:00:18;16.9;94.1
38221;DHT22;24023;51.280;7.148;2022-08-21T00:05:07;16.9;94.1
38221;DHT22;24023;51.280;7.148;2022-08-21T00:10:09;16.7;93.8
38221;DHT22;24023;51.280;7.148;2022-08-21T00:15:12;16.7;93.8
38221;DHT22;24023;51.280;7.148;2022-08-21T00:20:11;16.7;93.8
38221;DHT22;24023;51.280;7.148;2022-08-21T00:25:07;16.5;94.9
38221;DHT22;24023;51.280;7.148;2022-08-21T00:30:11;16.5;94.9
38221;DHT22;24023;51.280;7.148;2022-08-21T00:35:11;16.7;94.9
38221;DHT22;24023;51.280;7.148;2022-08-21T00:40:13;16.7;94.9
38221;DHT22;24023;51.280;7.148;2022-08-21T00:45:12;16.7;94.9
38221;DHT22;24023;51.280;7.148;2022-08-21T00:50:10;16.3;94.4
38221;DHT22;24023;51.280;7.148;2022-08-21T00:55:09;16.3;94.4
38221;DHT22;24023;51.280;7.148;2022-08-21T01:00:15;16.3;95.1
38221;DHT22;24023;51.280;7.148;2022-08-21T01:05:07;16.3;95.1
38221;DHT22;24023;51.280;7.148;2022-08-21T01:10:09;16.3;95.1
38221;DHT22;24023;51.280;7.148;2022-08-21T01:15:09;16.7;95.2
38221;DHT22;24023;51.280;7.148;2022-08-21T01:20:11;16.7;95.1
38221;DHT22;24023;51.280;7.148;2022-08-21T01:25:09;16.7;95.1
38221;DHT22;24023;51.280;7.148;2022-08-21T01:30:14;17.1;95.4
38221;DHT22;24023;51.280;7.148;2022-08-21T01:35:08;17.1;95.4
38221;DHT22;24023;51.280;7.148;2022-08-21T01:40:09;16.8;95.3
38221;DHT22;24023;51.280;7.148;2022-08-21T01:45:10;16.8;95.3
38221;DHT22;24023;51.280;7.148;2022-08-21T01:50:11;16.4;94.7
38221;DHT22;24023;51.280;7.148;2022-08-21T01:55:08;16.4;94.7
38221;DHT22;24023;51.280;7.148;2022-08-21T02:00:14;16.4;94.7
38221;DHT22;24023;51.280;7.148;2022-08-21T02:05:09;16.2;95.4
38221;DHT22;24023;51.280;7.148;2022-08-21T02:10:10;16.2;95.4
38221;DHT22;24023;51.280;7.148;2022-08-21T02:15:09;16.0;95.3
38221;DHT22;24023;51.280;7.148;2022-08-21T02:20:10;16.0;95.3
38221;DHT22;24023;51.280;7.148;2022-08-21T02:25:07;15.8;94.9
38221;DHT22;24023;51.280;7.148;2022-08-21T02:30:12;15.8;94.9
38221;DHT22;24023;51.280;7.148;2022-08-21T02:35:08;15.8;94.9
38221;DHT22;24023;51.280;7.148;2022-08-21T02:40:11;15.8;95.4
38221;DHT22;24023;51.280;7.148;2022-08-21T02:45:11;15.8;95.4
38221;DHT22;24023;51.280;7.148;2022-08-21T02:50:08;15.6;95.5
38221;DHT22;24023;51.280;7.148;2022-08-21T02:55:06;15.6;95.5
38221;DHT22;24023;51.280;7.148;2022-08-21T03:00:13;15.6;95.5
38221;DHT22;24023;51.280;7.148;2022-08-21T03:05:09;15.6;95.4
38221;DHT22;24023;51.280;7.148;2022-08-21T03:10:08;15.6;95.4
38221;DHT22;24023;51.280;7.148;2022-08-21T03:15:10;16.4;95.9
38221;DHT22;24023;51.280;7.148;2022-08-21T03:20:09;16.4;95.9
38221;DHT22;24023;51.280;7.148;2022-08-21T03:25:07;16.4;95.9
38221;DHT22;24023;51.280;7.148;2022-08-21T03:30:10;16.3;95.2
38221;DHT22;24023;51.280;7.148;2022-08-21T03:35:08;16.3;95.2
38221;DHT22;24023;51.280;7.148;2022-08-21T03:40:10;15.8;94.8
38221;DHT22;24023;51.280;7.148;2022-08-21T03:45:10;15.8;94.8
38221;DHT22;24023;51.280;7.148;2022-08-21T03:50:09;15.8;94.8
38221;DHT22;24023;51.280;7.148;2022-08-21T03:55:06;15.7;95.7
38221;DHT22;24023;51.280;7.148;2022-08-21T04:00:15;15.7;95.7
38221;DHT22;24023;51.280;7.148;2022-08-21T04:05:07;15.6;95.4
38221;DHT22;24023;51.280;7.148;2022-08-21T04:10:08;15.6;95.4
38221;DHT22;24023;51.280;7.148;2022-08-21T04:15:08;15.4;95.3
38221;DHT22;24023;51.280;7.148;2022-08-21T04:20:08;15.4;95.3
38221;DHT22;24023;51.280;7.148;2022-08-21T04:25:08;15.4;95.3
38221;DHT22;24023;51.280;7.148;2022-08-21T04:30:10;15.2;95.9
38221;DHT22;24023;51.280;7.148;2022-08-21T04:35:09;15.2;95.9
38221;DHT22;24023;51.280;7.148;2022-08-21T04:40:11;15.2;96.0
38221;DHT22;24023;51.280;7.148;2022-08-21T04:45:17;15.2;96.0
38221;DHT22;24023;51.280;7.148;2022-08-21T04:50:08;15.2;96.0
38221;DHT22;24023;51.280;7.148;2022-08-21T04:55:08;15.3;95.6
38221;DHT22;24023;51.280;7.148;2022-08-21T05:00:14;15.3;95.6
38221;DHT22;24023;51.280;7.148;2022-08-21T05:05:07;15.3;95.2
38221;DHT22;24023;51.280;7.148;2022-08-21T05:10:09;15.3;95.2
38221;DHT22;24023;51.280;7.148;2022-08-21T05:15:09;15.3;95.2
38221;DHT22;24023;51.280;7.148;2022-08-21T05:20:09;15.4;95.2
38221;DHT22;24023;51.280;7.148;2022-08-21T05:25:08;15.4;95.2
38221;DHT22;24023;51.280;7.148;2022-08-21T05:30:10;15.8;96.2
38221;DHT22;24023;51.280;7.148;2022-08-21T05:35:08;15.8;96.2
38221;DHT22;24023;51.280;7.148;2022-08-21T05:40:09;15.8;96.2
38221;DHT22;24023;51.280;7.148;2022-08-21T05:45:10;16.1;96.0
38221;DHT22;24023;51.280;7.148;2022-08-21T05:50:08;16.1;96.0
38221;DHT22;24023;51.280;7.148;2022-08-21T05:55:07;17.0;94.7
38221;DHT22;24023;51.280;7.148;2022-08-21T06:00:14;17.0;94.7
38221;DHT22;24023;51.280;7.148;2022-08-21T06:05:07;17.4;94.3
38221;DHT22;24023;51.280;7.148;2022-08-21T06:10:08;17.4;94.3
38221;DHT22;24023;51.280;7.148;2022-08-21T06:15:08;17.4;94.3
38221;DHT22;24023;51.280;7.148;2022-08-21T06:20:09;17.7;93.4
38221;DHT22;24023;51.280;7.148;2022-08-21T06:25:07;17.7;93.4
38221;DHT22;24023;51.280;7.148;2022-08-21T06:30:11;18.2;92.4
38221;DHT22;24023;51.280;7.148;2022-08-21T06:35:07;18.2;92.4
38221;DHT22;24023;51.280;7.148;2022-08-21T06:40:09;18.2;92.4
38221;DHT22;24023;51.280;7.148;2022-08-21T06:45:11;18.6;91.5
38221;DHT22;24023;51.280;7.148;2022-08-21T06:50:09;18.6;91.5
38221;DHT22;24023;51.280;7.148;2022-08-21T06:55:08;19.0;90.9
38221;DHT22;24023;51.280;7.148;2022-08-21T07:00:11;19.0;90.9
38221;DHT22;24023;51.280;7.148;2022-08-21T07:05:07;19.0;90.9
38221;DHT22;24023;51.280;7.148;2022-08-21T07:10:08;19.4;90.3
38221;DHT22;24023;51.280;7.148;2022-08-21T07:15:08;19.4;90.3
38221;DHT22;24023;51.280;7.148;2022-08-21T07:20:08;19.1;90.0
38221;DHT22;24023;51.280;7.148;2022-08-21T07:25:08;19.1;90.0
38221;DHT22;24023;51.280;7.148;2022-08-21T07:30:10;19.1;90.0
38221;DHT22;24023;51.280;7.148;2022-08-21T07:35:07;19.4;89.2
38221;DHT22;24023;51.280;7.148;2022-08-21T07:40:08;19.5;85.6
38221;DHT22;24023;51.280;7.148;2022-08-21T07:45:10;19.5;85.6
38221;DHT22;24023;51.280;7.148;2022-08-21T07:50:08;19.9;83.9
38221;DHT22;24023;51.280;7.148;2022-08-21T07:55:08;19.9;83.9
38221;DHT22;24023;51.280;7.148;2022-08-21T08:00:14;19.9;83.9
38221;DHT22;24023;51.280;7.148;2022-08-21T08:05:09;20.1;83.3
38221;DHT22;24023;51.280;7.148;2022-08-21T08:10:10;20.1;83.3
38221;DHT22;24023;51.280;7.148;2022-08-21T08:15:11;20.4;82.7
38221;DHT22;24023;51.280;7.148;2022-08-21T08:20:10;20.6;80.5
38221;DHT22;24023;51.280;7.148;2022-08-21T08:25:09;20.6;80.5
38221;DHT22;24023;51.280;7.148;2022-08-21T08:30:13;20.6;78.6
38221;DHT22;24023;51.280;7.148;2022-08-21T08:35:08;20.6;78.6
38221;DHT22;24023;51.280;7.148;2022-08-21T08:40:11;20.7;78.2
38221;DHT22;24023;51.280;7.148;2022-08-21T08:45:15;21.1;78.0
38221;DHT22;24023;51.280;7.148;2022-08-21T08:50:13;21.3;79.3
38221;DHT22;24023;51.280;7.148;2022-08-21T08:55:09;21.3;76.9
38221;DHT22;24023;51.280;7.148;2022-08-21T09:00:14;21.3;79.0
38221;DHT22;24023;51.280;7.148;2022-08-21T09:05:08;21.6;75.9
38221;DHT22;24023;51.280;7.148;2022-08-21T09:10:13;21.6;75.9
38221;DHT22;24023;51.280;7.148;2022-08-21T09:15:15;21.6;75.9
38221;DHT22;24023;51.280;7.148;2022-08-21T09:20:19;22.2;75.6
38221;DHT22;24023;51.280;7.148;2022-08-21T09:25:12;22.2;75.6
38221;DHT22;24023;51.280;7.148;2022-08-21T09:30:11;22.9;75.9
38221;DHT22;24023;51.280;7.148;2022-08-21T09:35:09;23.0;73.5
38221;DHT22;24023;51.280;7.148;2022-08-21T09:40:20;23.0;73.5
38221;DHT22;24023;51.280;7.148;2022-08-21T09:45:14;22.6;72.7
38221;DHT22;24023;51.280;7.148;2022-08-21T09:50:11;23.2;69.9
38221;DHT22;24023;51.280;7.148;2022-08-21T09:57:38;23.2;69.9
38221;DHT22;24023;51.280;7.148;2022-08-21T10:00:19;24.0;72.0
38221;DHT22;24023;51.280;7.148;2022-08-21T10:05:21;24.4;68.7
38221;DHT22;24023;51.280;7.148;2022-08-21T10:10:14;24.7;66.3
38221;DHT22;24023;51.280;7.148;2022-08-21T10:15:17;24.7;66.3
38221;DHT22;24023;51.280;7.148;2022-08-21T10:20:14;24.7;66.3
38221;DHT22;24023;51.280;7.148;2022-08-21T10:25:13;25.6;62.9
38221;DHT22;24023;51.280;7.148;2022-08-21T10:30:13;25.6;62.9
38221;DHT22;24023;51.280;7.148;2022-08-21T10:35:13;25.6;61.8
38221;DHT22;24023;51.280;7.148;2022-08-21T10:40:15;25.5;62.0
38221;DHT22;24023;51.280;7.148;2022-08-21T10:45:20;25.5;62.5
38221;DHT22;24023;51.280;7.148;2022-08-21T10:50:13;25.8;61.5
38221;DHT22;24023;51.280;7.148;2022-08-21T10:55:10;26.0;61.7
38221;DHT22;24023;51.280;7.148;2022-08-21T11:00:14;26.2;61.3
38221;DHT22;24023;51.280;7.148;2022-08-21T11:05:11;26.8;58.3
38221;DHT22;24023;51.280;7.148;2022-08-21T11:10:15;26.8;58.3
38221;DHT22;24023;51.280;7.148;2022-08-21T11:15:18;26.8;58.3
38221;DHT22;24023;51.280;7.148;2022-08-21T11:20:12;27.2;58.4
38221;DHT22;24023;51.280;7.148;2022-08-21T11:25:13;26.8;57.6
38221;DHT22;24023;51.280;7.148;2022-08-21T11:30:10;26.8;57.6
38221;DHT22;24023;51.280;7.148;2022-08-21T11:35:12;26.4;59.6
38221;DHT22;24023;51.280;7.148;2022-08-21T11:40:14;26.4;59.6
38221;DHT22;24023;51.280;7.148;2022-08-21T11:45:17;26.4;59.6
38221;DHT22;24023;51.280;7.148;2022-08-21T11:50:13;26.1;61.5
38221;DHT22;24023;51.280;7.148;2022-08-21T11:55:12;26.6;58.6
38221;DHT22;24023;51.280;7.148;2022-08-21T12:00:16;27.1;56.6
38221;DHT22;24023;51.280;7.148;2022-08-21T12:05:10;27.8;59.5
38221;DHT22;24023;51.280;7.148;2022-08-21T12:10:12;28.2;52.4
38221;DHT22;24023;51.280;7.148;2022-08-21T12:15:25;27.9;54.7
38221;DHT22;24023;51.280;7.148;2022-08-21T12:25:09;28.1;54.6
38221;DHT22;24023;51.280;7.148;2022-08-21T12:30:21;28.5;52.3
38221;DHT22;24023;51.280;7.148;2022-08-21T12:35:14;28.5;52.3
38221;DHT22;24023;51.280;7.148;2022-08-21T12:40:14;28.9;53.9
38221;DHT22;24023;51.280;7.148;2022-08-21T12:45:20;28.3;51.5
38221;DHT22;24023;51.280;7.148;2022-08-21T12:50:11;27.8;52.9
38221;DHT22;24023;51.280;7.148;2022-08-21T12:55:10;27.8;52.9
38221;DHT22;24023;51.280;7.148;2022-08-21T13:00:13;27.5;52.7
38221;DHT22;24023;51.280;7.148;2022-08-21T13:05:11;27.5;52.7
38221;DHT22;24023;51.280;7.148;2022-08-21T13:10:18;28.0;54.9
38221;DHT22;24023;51.280;7.148;2022-08-21T13:15:09;28.3;53.2
38221;DHT22;24023;51.280;7.148;2022-08-21T13:20:18;28.3;53.2
38221;DHT22;24023;51.280;7.148;2022-08-21T13:25:10;26.9;54.8
38221;DHT22;24023;51.280;7.148;2022-08-21T13:30:12;26.9;54.8
38221;DHT22;24023;51.280;7.148;2022-08-21T13:35:09;27.3;57.1
38221;DHT22;24023;51.280;7.148;2022-08-21T13:40:11;27.4;54.0
38221;DHT22;24023;51.280;7.148;2022-08-21T13:45:16;27.4;54.0
38221;DHT22;24023;51.280;7.148;2022-08-21T13:50:12;28.4;51.8
38221;DHT22;24023;51.280;7.148;2022-08-21T13:55:12;29.4;49.7
38221;DHT22;24023;51.280;7.148;2022-08-21T14:00:14;29.4;49.6
38221;DHT22;24023;51.280;7.148;2022-08-21T14:05:15;30.6;46.9
38221;DHT22;24023;51.280;7.148;2022-08-21T14:10:13;30.9;46.2
38221;DHT22;24023;51.280;7.148;2022-08-21T14:15:09;29.7;46.9
38221;DHT22;24023;51.280;7.148;2022-08-21T14:20:11;28.8;50.1
38221;DHT22;24023;51.280;7.148;2022-08-21T14:25:09;28.8;50.1
38221;DHT22;24023;51.280;7.148;2022-08-21T14:30:14;29.8;47.7
38221;DHT22;24023;51.280;7.148;2022-08-21T14:35:07;30.4;48.0
38221;DHT22;24023;51.280;7.148;2022-08-21T14:40:10;30.4;48.0
38221;DHT22;24023;51.280;7.148;2022-08-21T14:45:14;29.2;48.7
38221;DHT22;24023;51.280;7.148;2022-08-21T14:50:09;29.2;48.7
38221;DHT22;24023;51.280;7.148;2022-08-21T14:55:08;28.1;51.4
38221;DHT22;24023;51.280;7.148;2022-08-21T15:00:15;27.0;53.7
38221;DHT22;24023;51.280;7.148;2022-08-21T15:05:07;27.0;53.7
38221;DHT22;24023;51.280;7.148;2022-08-21T15:10:08;26.5;56.0
38221;DHT22;24023;51.280;7.148;2022-08-21T15:15:08;26.4;52.0
38221;DHT22;24023;51.280;7.148;2022-08-21T15:20:10;25.7;54.2
38221;DHT22;24023;51.280;7.148;2022-08-21T15:25:07;25.7;54.2
38221;DHT22;24023;51.280;7.148;2022-08-21T15:30:11;25.6;54.3
38221;DHT22;24023;51.280;7.148;2022-08-21T15:35:07;25.6;54.3
38221;DHT22;24023;51.280;7.148;2022-08-21T15:40:09;25.6;54.3
38221;DHT22;24023;51.280;7.148;2022-08-21T15:45:11;25.2;56.7
38221;DHT22;24023;51.280;7.148;2022-08-21T15:50:11;25.2;56.7
38221;DHT22;24023;51.280;7.148;2022-08-21T15:55:08;24.9;56.8
38221;DHT22;24023;51.280;7.148;2022-08-21T16:00:17;24.9;56.8
38221;DHT22;24023;51.280;7.148;2022-08-21T16:05:07;24.9;54.5
38221;DHT22;24023;51.280;7.148;2022-08-21T16:10:08;25.0;56.6
38221;DHT22;24023;51.280;7.148;2022-08-21T16:15:10;25.0;54.4
38221;DHT22;24023;51.280;7.148;2022-08-21T16:20:12;25.0;54.4
38221;DHT22;24023;51.280;7.148;2022-08-21T16:25:07;24.8;56.6
38221;DHT22;24023;51.280;7.148;2022-08-21T16:30:11;24.5;56.7
38221;DHT22;24023;51.280;7.148;2022-08-21T16:35:07;24.5;56.7
38221;DHT22;24023;51.280;7.148;2022-08-21T16:40:10;24.3;57.9
38221;DHT22;24023;51.280;7.148;2022-08-21T16:45:12;24.3;57.9
38221;DHT22;24023;51.280;7.148;2022-08-21T16:50:09;24.3;57.9
38221;DHT22;24023;51.280;7.148;2022-08-21T16:55:07;24.1;57.9
38221;DHT22;24023;51.280;7.148;2022-08-21T17:00:12;24.1;57.9
38221;DHT22;24023;51.280;7.148;2022-08-21T17:05:07;23.9;57.9
38221;DHT22;24023;51.280;7.148;2022-08-21T17:10:10;23.7;60.2
38221;DHT22;24023;51.280;7.148;2022-08-21T17:15:21;23.7;60.2
38221;DHT22;24023;51.280;7.148;2022-08-21T17:20:08;23.5;60.8
38221;DHT22;24023;51.280;7.148;2022-08-21T17:25:08;23.5;60.8
38221;DHT22;24023;51.280;7.148;2022-08-21T17:30:11;23.5;60.8
38221;DHT22;24023;51.280;7.148;2022-08-21T17:35:08;23.5;61.1
38221;DHT22;24023;51.280;7.148;2022-08-21T17:40:12;23.5;61.1
38221;DHT22;24023;51.280;7.148;2022-08-21T17:45:12;23.3;62.0
38221;DHT22;24023;51.280;7.148;2022-08-21T17:50:12;23.3;62.0
38221;DHT22;24023;51.280;7.148;2022-08-21T17:55:06;23.1;63.1
38221;DHT22;24023;51.280;7.148;2022-08-21T18:00:13;23.1;63.1
38221;DHT22;24023;51.280;7.148;2022-08-21T18:05:09;23.1;63.1
38221;DHT22;24023;51.280;7.148;2022-08-21T18:10:11;22.9;62.7
38221;DHT22;24023;51.280;7.148;2022-08-21T18:15:09;22.6;65.3
38221;DHT22;24023;51.280;7.148;2022-08-21T18:20:09;22.3;68.3
38221;DHT22;24023;51.280;7.148;2022-08-21T18:25:08;21.8;70.5
38221;DHT22;24023;51.280;7.148;2022-08-21T18:30:11;21.8;70.5
38221;DHT22;24023;51.280;7.148;2022-08-21T18:35:07;21.8;70.5
38221;DHT22;24023;51.280;7.148;2022-08-21T18:40:09;21.3;70.0
38221;DHT22;24023;51.280;7.148;2022-08-21T18:45:14;21.3;70.0
38221;DHT22;24023;51.280;7.148;2022-08-21T18:50:10;21.1;70.7
38221;DHT22;24023;51.280;7.148;2022-08-21T18:55:08;21.1;70.7
38221;DHT22;24023;51.280;7.148;2022-08-21T19:00:15;20.5;73.0
38221;DHT22;24023;51.280;7.148;2022-08-21T19:05:08;20.5;73.0
38221;DHT22;24023;51.280;7.148;2022-08-21T19:10:11;20.0;75.7
38221;DHT22;24023;51.280;7.148;2022-08-21T19:15:11;20.0;75.7
38221;DHT22;24023;51.280;7.148;2022-08-21T19:20:12;20.1;74.4
38221;DHT22;24023;51.280;7.148;2022-08-21T19:25:07;20.1;74.4
38221;DHT22;24023;51.280;7.148;2022-08-21T19:30:09;20.1;74.4
38221;DHT22;24023;51.280;7.148;2022-08-21T19:35:07;19.7;77.1
38221;DHT22;24023;51.280;7.148;2022-08-21T19:40:10;19.7;77.1
38221;DHT22;24023;51.280;7.148;2022-08-21T19:45:09;19.7;76.5
38221;DHT22;24023;51.280;7.148;2022-08-21T19:50:08;19.7;76.5
38221;DHT22;24023;51.280;7.148;2022-08-21T19:55:08;19.7;76.5
38221;DHT22;24023;51.280;7.148;2022-08-21T20:00:13;19.6;76.6
38221;DHT22;24023;51.280;7.148;2022-08-21T20:05:07;19.6;76.6
38221;DHT22;24023;51.280;7.148;2022-08-21T20:10:08;19.9;76.3
38221;DHT22;24023;51.280;7.148;2022-08-21T20:15:08;19.9;76.3
38221;DHT22;24023;51.280;7.148;2022-08-21T20:20:09;19.9;73.7
38221;DHT22;24023;51.280;7.148;2022-08-21T20:25:07;19.8;78.6
38221;DHT22;24023;51.280;7.148;2022-08-21T20:30:10;19.8;78.6
38221;DHT22;24023;51.280;7.148;2022-08-21T20:35:07;19.6;76.5
38221;DHT22;24023;51.280;7.148;2022-08-21T20:40:11;19.6;78.6
38221;DHT22;24023;51.280;7.148;2022-08-21T20:45:17;19.5;76.1
38221;DHT22;24023;51.280;7.148;2022-08-21T20:50:10;19.5;78.3
38221;DHT22;24023;51.280;7.148;2022-08-21T20:55:09;19.5;78.3
38221;DHT22;24023;51.280;7.148;2022-08-21T21:00:15;19.5;78.1
38221;DHT22;24023;51.280;7.148;2022-08-21T21:05:12;19.5;78.1
38221;DHT22;24023;51.280;7.148;2022-08-21T21:10:14;19.7;80.0
38221;DHT22;24023;51.280;7.148;2022-08-21T21:15:11;19.7;75.3
38221;DHT22;24023;51.280;7.148;2022-08-21T21:20:13;19.7;75.3
38221;DHT22;24023;51.280;7.148;2022-08-21T21:25:10;19.7;77.8
38221;DHT22;24023;51.280;7.148;2022-08-21T21:30:11;19.7;75.7
38221;DHT22;24023;51.280;7.148;2022-08-21T21:35:07;19.7;75.7
38221;DHT22;24023;51.280;7.148;2022-08-21T21:40:26;20.0;75.0
38221;DHT22;24023;51.280;7.148;2022-08-21T21:45:17;20.0;75.0
38221;DHT22;24023;51.280;7.148;2022-08-21T21:50:20;20.0;75.0
38221;DHT22;24023;51.280;7.148;2022-08-21T21:55:17;20.0;75.3
38221;DHT22;24023;51.280;7.148;2022-08-21T22:00:27;20.0;75.3
38221;DHT22;24023;51.280;7.148;2022-08-21T22:05:15;20.0;77.5
38221;DHT22;24023;51.280;7.148;2022-08-21T22:10:16;20.0;77.5
38221;DHT22;24023;51.280;7.148;2022-08-21T22:15:07;20.0;77.5
38221;DHT22;24023;51.280;7.148;2022-08-21T22:20:13;20.1;78.2
38221;DHT22;24023;51.280;7.148;2022-08-21T22:25:15;20.1;78.2
38221;DHT22;24023;51.280;7.148;2022-08-21T22:30:15;20.0;79.8
38221;DHT22;24023;51.280;7.148;2022-08-21T22:35:13;20.0;79.8
38221;DHT22;24023;51.280;7.148;2022-08-21T22:40:10;20.0;80.8
38221;DHT22;24023;51.280;7.148;2022-08-21T22:45:19;20.0;80.8
38221;DHT22;24023;51.280;7.148;2022-08-21T22:50:19;20.0;80.9
38221;DHT22;24023;51.280;7.148;2022-08-21T22:55:20;20.0;80.9
38221;DHT22;24023;51.280;7.148;2022-08-21T23:00:14;19.6;82.7
38221;DHT22;24023;51.280;7.148;2022-08-21T23:05:18;19.6;82.7
38221;DHT22;24023;51.280;7.148;2022-08-21T23:10:17;19.6;82.7
38221;DHT22;24023;51.280;7.148;2022-08-21T23:15:11;19.3;83.9
38221;DHT22;24023;51.280;7.148;2022-08-21T23:20:14;19.0;85.3
38221;DHT22;24023;51.280;7.148;2022-08-21T23:25:18;19.0;85.3
38221;DHT22;24023;51.280;7.148;2022-08-21T23:30:12;19.0;85.3
38221;DHT22;24023;51.280;7.148;2022-08-21T23:35:11;18.9;86.5
38221;DHT22;24023;51.280;7.148;2022-08-21T23:40:18;18.9;86.5
38221;DHT22;24023;51.280;7.148;2022-08-21T23:45:16;18.7;87.7
38221;DHT22;24023;51.280;7.148;2022-08-21T23:50:11;18.7;87.7
38221;DHT22;24023;51.280;7.148;2022-08-21T23:55:19;18.7;87.7
